Time;durP1;ratioP1;P1;durP2;ratioP2;P2;SDS_P1;SDS_P2;PMS_P1;PMS_P2;Temp;Humidity;BMP_temperature;BMP_pressure;BME280_temperature;BME280_humidity;BME280_pressure;Samples;Min_cycle;Max_cycle;Signal;HPM_P1;HPM_P2
2021/05/10 00:02:26;;;;;;;2.70;1.40;;;;;;;4.32;70.09;100541.05;1784072;78;21573;-51
2021/05/10 00:04:54;;;;;;;1.80;1.10;;;;;;;4.33;70.11;100542.83;1783771;78;21201;-52
2021/05/10 00:07:22;;;;;;;2.07;1.00;;;;;;;4.34;70.09;100535.23;1785937;78;21178;-52
2021/05/10 00:09:50;;;;;;;2.73;1.43;;;;;;;4.34;70.06;100537.05;1779248;78;21595;-51
2021/05/10 00:12:17;;;;;;;2.30;1.20;;;;;;;4.32;70.04;100542.39;1783138;78;21380;-51
2021/05/10 00:14:48;;;;;;;1.97;1.10;;;;;;;4.29;70.13;100538.41;1785602;78;21289;-51
2021/05/10 00:17:16;;;;;;;1.63;1.10;;;;;;;4.30;70.22;100541.52;1780646;78;21195;-50
2021/05/10 00:19:44;;;;;;;2.63;1.17;;;;;;;4.30;70.17;100545.95;1752843;80;21594;-52
2021/05/10 00:22:12;;;;;;;2.10;1.27;;;;;;;4.27;70.12;100538.87;1755171;80;21106;-51
2021/05/10 00:24:39;;;;;;;2.07;1.37;;;;;;;4.21;70.04;100541.61;1767496;79;21199;-55
2021/05/10 00:27:07;;;;;;;3.90;1.20;;;;;;;4.09;70.23;100540.38;1771794;79;21170;-51
2021/05/10 00:29:36;;;;;;;3.33;1.37;;;;;;;4.01;70.35;100539.57;1767637;79;21279;-51
2021/05/10 00:32:04;;;;;;;3.90;1.00;;;;;;;3.99;70.46;100532.95;1767823;79;21217;-51
2021/05/10 00:34:32;;;;;;;1.73;1.00;;;;;;;4.00;70.58;100533.80;1769890;79;21638;-51
2021/05/10 00:36:59;;;;;;;1.60;1.30;;;;;;;4.02;70.66;100529.35;1764171;79;21200;-51
2021/05/10 00:39:26;;;;;;;2.30;1.07;;;;;;;4.07;70.74;100532.88;1765662;79;21180;-50
2021/05/10 00:41:57;;;;;;;1.97;1.10;;;;;;;4.10;70.87;100531.05;1766005;79;21835;-51
2021/05/10 00:44:25;;;;;;;2.13;1.20;;;;;;;4.14;70.83;100531.91;1764979;79;21176;-50
2021/05/10 00:46:53;;;;;;;1.47;1.30;;;;;;;4.17;70.76;100535.41;1766855;79;22102;-50
2021/05/10 00:49:23;;;;;;;3.83;1.30;;;;;;;4.18;70.68;100534.52;1738228;79;21385;-51
2021/05/10 00:51:51;;;;;;;2.13;1.67;;;;;;;4.20;70.54;100538.50;1765855;79;21629;-51
2021/05/10 00:54:18;;;;;;;1.40;1.30;;;;;;;4.16;70.47;100548.33;1765662;79;21192;-50
2021/05/10 00:56:45;;;;;;;2.23;1.77;;;;;;;4.13;70.41;100546.13;1766979;79;22786;-50
2021/05/10 00:59:13;;;;;;;2.00;1.40;;;;;;;4.09;70.47;100542.59;1761508;79;21409;-51
2021/05/10 01:01:41;;;;;;;1.60;1.30;;;;;;;4.08;70.53;100545.30;1760490;79;21833;-51
2021/05/10 01:04:08;;;;;;;3.73;1.57;;;;;;;4.05;70.50;100549.31;1763243;79;21172;-51
2021/05/10 01:06:35;;;;;;;1.40;1.30;;;;;;;4.00;70.50;100545.79;1760526;79;21194;-50
2021/05/10 01:09:05;;;;;;;1.17;1.00;;;;;;;3.97;70.60;100548.05;1773121;79;21224;-51
2021/05/10 01:11:32;;;;;;;2.17;1.20;;;;;;;3.98;70.75;100547.61;1763463;79;21182;-51
2021/05/10 01:14:01;;;;;;;1.10;1.00;;;;;;;3.98;70.74;100552.48;1765830;79;21390;-51
2021/05/10 01:16:28;;;;;;;1.60;1.20;;;;;;;4.00;70.89;100557.77;1764822;79;21189;-51
2021/05/10 01:18:55;;;;;;;4.13;1.43;;;;;;;4.04;70.84;100556.87;1761167;79;21466;-51
2021/05/10 01:21:22;;;;;;;1.70;1.30;;;;;;;4.06;70.70;100561.74;1763872;79;21217;-50
2021/05/10 01:23:50;;;;;;;1.57;1.40;;;;;;;4.06;70.67;100558.63;1771823;79;21479;-51
2021/05/10 01:26:17;;;;;;;3.30;1.33;;;;;;;4.07;70.71;100564.40;1764352;79;21220;-51
2021/05/10 01:28:44;;;;;;;2.53;1.80;;;;;;;4.08;70.61;100567.95;1742816;79;21164;-50
2021/05/10 01:31:15;;;;;;;3.80;1.93;;;;;;;4.07;70.61;100567.51;1766869;79;21492;-51
2021/05/10 01:33:42;;;;;;;1.90;1.70;;;;;;;4.06;70.64;100564.41;1764225;79;21157;-50
2021/05/10 01:36:09;;;;;;;2.97;2.17;;;;;;;4.04;70.66;100565.75;1766147;79;21190;-50
2021/05/10 01:38:37;;;;;;;4.70;1.63;;;;;;;4.03;70.64;100569.75;1764959;79;22130;-50
2021/05/10 01:41:04;;;;;;;3.63;1.90;;;;;;;3.99;70.60;100580.90;1766029;79;21182;-51
2021/05/10 01:43:32;;;;;;;7.30;2.70;;;;;;;3.95;70.69;100579.14;1768413;79;21459;-51
2021/05/10 01:45:59;;;;;;;17.80;4.83;;;;;;;3.95;70.71;100583.14;1769260;79;21469;-50
2021/05/10 01:48:26;;;;;;;17.13;6.30;;;;;;;3.96;70.74;100578.25;1771875;79;21170;-50
2021/05/10 01:50:53;;;;;;;16.43;7.50;;;;;;;3.96;70.90;100576.92;1775077;79;21724;-50
2021/05/10 01:53:21;;;;;;;29.40;12.70;;;;;;;3.96;70.97;100577.36;1789198;78;21767;-50
2021/05/10 01:55:48;;;;;;;40.47;15.90;;;;;;;3.97;70.96;100578.69;1758637;79;21516;-51
2021/05/10 01:58:15;;;;;;;51.70;23.40;;;;;;;3.99;70.94;100578.23;1786150;79;21205;-50
2021/05/10 02:00:45;;;;;;;51.77;23.77;;;;;;;4.01;70.89;100583.52;1787453;79;21641;-51
2021/05/10 02:03:14;;;;;;;75.33;32.60;;;;;;;4.00;70.83;100584.41;1788546;78;21649;-50
2021/05/10 02:05:42;;;;;;;88.57;36.20;;;;;;;4.00;70.88;100587.97;1785736;78;21118;-49
2021/05/10 02:08:12;;;;;;;99.33;48.00;;;;;;;4.00;70.91;100587.97;1787805;79;21134;-51
2021/05/10 02:10:45;;;;;;;120.30;54.20;;;;;;;4.01;70.93;100590.19;1789036;79;21149;-51
2021/05/10 02:13:18;;;;;;;111.17;50.07;;;;;;;3.99;70.76;100590.23;1787905;79;21138;-50
2021/05/10 02:15:55;;;;;;;80.33;38.10;;;;;;;3.94;70.79;100592.02;1789746;79;22262;-49
2021/05/10 02:18:25;;;;;;;93.77;42.43;;;;;;;3.90;70.87;100588.97;1786988;79;21110;-51
2021/05/10 02:20:52;;;;;;;88.30;36.73;;;;;;;3.88;70.80;100591.19;1790103;78;21155;-50
2021/05/10 02:23:22;;;;;;;80.70;33.83;;;;;;;3.84;70.83;100592.98;1788903;79;21108;-49
2021/05/10 02:25:53;;;;;;;107.93;47.03;;;;;;;3.83;70.84;100594.35;1787861;79;21150;-49
2021/05/10 02:28:25;;;;;;;119.53;50.00;;;;;;;3.80;70.92;100595.25;1788940;78;21521;-49
2021/05/10 02:30:54;;;;;;;159.27;67.63;;;;;;;3.78;71.10;100593.92;1789965;79;21652;-49
2021/05/10 02:33:25;;;;;;;183.93;78.27;;;;;;;3.80;71.23;100597.91;1789232;79;21130;-52
2021/05/10 02:35:53;;;;;;;158.10;67.37;;;;;;;3.80;71.22;100597.47;1789045;79;21433;-50
2021/05/10 02:38:21;;;;;;;184.60;81.40;;;;;;;3.81;71.18;100599.69;1789669;79;21094;-49
2021/05/10 02:40:50;;;;;;;177.17;80.80;;;;;;;3.84;71.15;100600.09;1787604;78;21126;-51
2021/05/10 02:43:18;;;;;;;184.67;84.30;;;;;;;3.82;71.10;100604.13;1786341;78;21164;-49
2021/05/10 02:45:46;;;;;;;182.60;78.50;;;;;;;3.79;71.07;100602.80;1789168;79;21459;-50
2021/05/10 02:48:13;;;;;;;116.80;52.00;;;;;;;3.78;71.23;100607.69;1786097;78;21106;-51
2021/05/10 02:50:41;;;;;;;104.50;46.40;;;;;;;3.77;71.39;100611.23;1787653;79;21130;-52
2021/05/10 02:53:08;;;;;;;87.77;42.47;;;;;;;3.78;71.49;100613.90;1788370;79;21658;-49
2021/05/10 02:55:36;;;;;;;65.30;29.97;;;;;;;3.78;71.52;100607.23;1788332;79;21158;-52
2021/05/10 02:58:03;;;;;;;60.77;22.57;;;;;;;3.80;71.59;100613.45;1790611;79;21122;-50
2021/05/10 03:00:30;;;;;;;47.97;19.90;;;;;;;3.85;71.66;100605.86;1788752;79;21138;-52
2021/05/10 03:02:58;;;;;;;48.73;20.07;;;;;;;3.90;71.78;100609.39;1789345;79;21114;-51
2021/05/10 03:05:26;;;;;;;47.07;18.77;;;;;;;3.95;71.88;100611.55;1785867;78;21416;-50
2021/05/10 03:07:54;;;;;;;52.47;20.73;;;;;;;4.02;71.97;100611.94;1786033;78;21197;-52
2021/05/10 03:10:23;;;;;;;35.50;15.70;;;;;;;4.08;72.00;100618.57;1788336;79;21197;-52
2021/05/10 03:12:53;;;;;;;39.80;16.30;;;;;;;4.15;72.08;100617.62;1784893;78;21136;-52
2021/05/10 03:15:21;;;;;;;38.00;16.87;;;;;;;4.23;72.15;100617.09;1788293;79;21533;-49
2021/05/10 03:17:52;;;;;;;41.67;17.43;;;;;;;4.30;72.18;100618.80;1785765;78;21221;-50
2021/05/10 03:20:22;;;;;;;42.27;20.53;;;;;;;4.37;72.17;100612.97;1783968;78;21206;-53
2021/05/10 03:22:53;;;;;;;37.63;18.60;;;;;;;4.43;72.26;100620.45;1791155;78;21134;-50
2021/05/10 03:25:21;;;;;;;45.13;19.50;;;;;;;4.48;72.51;100622.63;1761021;79;21087;-50
2021/05/10 03:27:50;;;;;;;42.23;19.10;;;;;;;4.48;72.70;100626.63;1785881;79;21106;-50
2021/05/10 03:30:20;;;;;;;32.43;14.17;;;;;;;4.49;72.86;100629.73;1787435;79;21795;-49
2021/05/10 03:32:48;;;;;;;28.90;12.50;;;;;;;4.50;73.00;100623.52;1786800;79;21181;-49
2021/05/10 03:35:16;;;;;;;26.17;12.57;;;;;;;4.58;73.18;100630.09;1805025;78;21649;-50
2021/05/10 03:37:45;;;;;;;22.67;10.03;;;;;;;4.65;73.36;100635.80;1803048;78;21171;-50
2021/05/10 03:40:15;;;;;;;26.67;10.10;;;;;;;4.75;73.49;100627.25;1808878;78;21175;-52
2021/05/10 03:42:44;;;;;;;24.57;12.37;;;;;;;4.87;73.58;100625.77;1772525;79;21649;-50
2021/05/10 03:45:12;;;;;;;26.47;12.33;;;;;;;4.98;73.67;100629.20;1807939;78;21215;-50
2021/05/10 03:47:40;;;;;;;32.70;13.83;;;;;;;5.11;73.72;100637.94;1776778;79;21186;-51
2021/05/10 03:50:19;;;;;;;35.90;12.77;;;;;;;5.23;73.73;100637.80;1777919;79;21354;-50
2021/05/10 03:52:49;;;;;;;30.13;12.30;;;;;;;5.36;73.68;100634.53;1784085;79;21205;-50
2021/05/10 03:55:20;;;;;;;36.83;12.77;;;;;;;5.49;73.87;100633.00;1770084;80;22179;-53
2021/05/10 03:57:47;;;;;;;22.07;11.17;;;;;;;5.62;73.92;100633.25;1782251;78;21244;-52
2021/05/10 04:00:17;;;;;;;27.07;12.40;;;;;;;5.76;73.90;100634.86;1771603;80;21195;-52
2021/05/10 04:02:45;;;;;;;25.03;12.90;;;;;;;5.90;73.79;100638.23;1782161;78;21202;-51
2021/05/10 04:15:58;;;;;;;140.00;62.20;;;;;;;7.67;72.44;100637.98;1772767;80;21290;-51
2021/05/10 04:18:25;;;;;;;151.77;76.03;;;;;;;8.40;71.39;100633.60;1778903;80;21128;-51
2021/05/10 04:20:53;;;;;;;180.67;85.33;;;;;;;9.07;69.86;100639.84;1781264;78;21379;-51
2021/05/10 04:23:21;;;;;;;168.83;84.43;;;;;;;9.56;68.06;100635.27;1784155;78;21196;-50
2021/05/10 04:25:50;;;;;;;167.53;83.57;;;;;;;9.84;66.54;100631.28;1778920;78;21191;-50
2021/05/10 04:28:18;;;;;;;170.83;84.80;;;;;;;10.07;65.59;100630.08;1782434;78;21737;-51
2021/05/10 04:30:46;;;;;;;134.50;67.47;;;;;;;10.33;64.67;100627.91;1777730;78;21205;-51
2021/05/10 04:33:14;;;;;;;112.40;54.47;;;;;;;10.43;63.40;100632.52;1807590;78;21581;-50
2021/05/10 04:35:41;;;;;;;93.90;45.30;;;;;;;10.51;62.13;100629.10;1804325;78;21193;-51
2021/05/10 04:38:11;;;;;;;75.37;36.30;;;;;;;10.57;61.04;100639.19;1802713;78;21493;-50
2021/05/10 04:40:39;;;;;;;67.37;31.57;;;;;;;10.61;60.34;100635.94;1776524;78;21209;-52
2021/05/10 04:43:06;;;;;;;48.07;19.93;;;;;;;10.64;59.44;100639.84;1783347;78;21386;-50
2021/05/10 04:45:35;;;;;;;29.23;14.33;;;;;;;10.66;58.48;100639.80;1805211;78;21367;-52
2021/05/10 04:48:04;;;;;;;39.50;17.33;;;;;;;10.69;57.51;100644.63;1803768;78;21206;-52
2021/05/10 04:50:32;;;;;;;25.73;11.57;;;;;;;10.72;57.38;100644.50;1771086;78;21178;-52
2021/05/10 04:53:00;;;;;;;20.90;9.27;;;;;;;10.77;56.72;100649.28;1808983;78;21481;-51
2021/05/10 04:55:27;;;;;;;16.87;7.37;;;;;;;10.81;56.65;100645.53;1804485;78;21229;-50
2021/05/10 04:57:55;;;;;;;17.03;8.40;;;;;;;10.86;55.75;100647.62;1805353;77;21615;-51
2021/05/10 05:00:22;;;;;;;14.03;7.10;;;;;;;10.91;55.51;100646.97;1779005;78;21158;-51
2021/05/10 05:02:49;;;;;;;17.73;8.40;;;;;;;11.00;55.55;100649.81;1807552;78;21866;-51
2021/05/10 05:05:16;;;;;;;24.77;9.60;;;;;;;11.08;55.44;100647.72;1783927;78;21106;-51
2021/05/10 05:07:43;;;;;;;14.33;6.13;;;;;;;11.17;54.83;100647.85;1788638;79;21432;-52
2021/05/10 05:10:13;;;;;;;7.07;3.63;;;;;;;11.24;54.69;100656.12;1785950;79;21565;-50
2021/05/10 05:12:41;;;;;;;5.30;2.00;;;;;;;11.32;53.98;100659.41;1785569;79;21545;-51
2021/05/10 05:15:09;;;;;;;6.73;2.40;;;;;;;11.38;53.76;100660.09;1787518;79;21123;-51
2021/05/10 05:17:39;;;;;;;4.30;1.70;;;;;;;11.45;53.68;100658.50;1786320;79;21098;-49
2021/05/10 05:20:08;;;;;;;3.67;1.98;;;;;;;11.52;54.04;100657.33;1786634;79;21476;-50
2021/05/10 05:22:35;;;;;;;6.42;2.47;;;;;;;11.59;54.04;100652.98;1787544;79;21388;-50
2021/05/10 05:25:05;;;;;;;4.67;2.45;;;;;;;11.69;53.37;100660.27;1794110;79;21111;-50
2021/05/10 05:27:33;;;;;;;5.42;2.10;;;;;;;11.78;53.23;100650.97;1790057;79;21652;-50
2021/05/10 05:30:00;;;;;;;4.45;1.67;;;;;;;11.87;52.72;100648.80;1790675;78;21430;-50
2021/05/10 05:32:28;;;;;;;6.58;2.42;;;;;;;11.97;52.58;100648.84;1791058;79;21553;-50
2021/05/10 05:34:56;;;;;;;7.83;4.05;;;;;;;12.07;52.13;100648.02;1786363;78;21708;-51
2021/05/10 05:37:24;;;;;;;6.75;3.42;;;;;;;12.19;51.73;100654.72;1795271;78;21099;-51
2021/05/10 05:39:52;;;;;;;13.43;6.62;;;;;;;12.29;51.71;100655.64;1795975;79;21122;-51
2021/05/10 05:42:19;;;;;;;12.98;5.33;;;;;;;12.40;50.59;100655.20;1789928;79;21565;-50
2021/05/10 05:47:25;;;;;;;7.73;3.33;;;;;;;12.60;50.08;100650.30;1857435;74;21935;-52
2021/05/10 05:49:54;;;;;;;4.70;2.42;;;;;;;12.62;50.00;100656.05;1825799;76;21209;-52
2021/05/10 05:52:21;;;;;;;21.87;2.65;;;;;;;12.69;49.74;100658.89;1811546;76;21198;-51
2021/05/10 05:54:51;;;;;;;7.12;2.40;;;;;;;12.73;49.78;100651.08;1833779;76;22362;-52
2021/05/10 05:57:19;;;;;;;7.72;2.12;;;;;;;12.82;49.87;100654.74;1827403;76;21050;-52
2021/05/10 05:59:47;;;;;;;2.83;1.47;;;;;;;12.90;49.81;100655.76;1831161;76;21022;-51
2021/05/10 06:02:14;;;;;;;3.52;1.27;;;;;;;12.99;49.78;100653.13;1826717;76;21159;-51
2021/05/10 06:04:41;;;;;;;3.08;1.40;;;;;;;13.07;49.34;100651.84;1830262;76;21664;-50
2021/05/10 06:07:09;;;;;;;1.98;0.80;;;;;;;13.16;48.71;100654.64;1828669;76;21189;-52
2021/05/10 06:09:36;;;;;;;1.80;1.00;;;;;;;13.23;48.77;100652.07;1823975;76;21443;-52
2021/05/10 06:12:05;;;;;;;2.55;0.90;;;;;;;13.32;48.73;100653.48;1822618;76;21683;-52
2021/05/10 06:14:33;;;;;;;4.10;1.00;;;;;;;13.38;48.10;100646.44;1827068;76;21175;-51
2021/05/10 06:17:02;;;;;;;1.30;0.90;;;;;;;13.43;47.30;100645.77;1831865;76;21155;-52
2021/05/10 06:19:30;;;;;;;1.20;0.60;;;;;;;13.47;47.49;100649.59;1778454;76;21518;-52
2021/05/10 06:21:57;;;;;;;1.67;0.60;;;;;;;13.54;47.38;100651.06;1825039;76;21083;-51
2021/05/10 06:24:25;;;;;;;2.00;0.70;;;;;;;13.62;46.38;100654.77;1825505;76;22173;-52
2021/05/10 06:26:52;;;;;;;2.90;0.60;;;;;;;13.69;46.32;100657.62;1823117;76;21143;-51
2021/05/10 06:29:19;;;;;;;1.40;0.60;;;;;;;13.73;45.52;100642.09;1827814;76;21362;-52
2021/05/10 06:31:46;;;;;;;0.90;0.70;;;;;;;13.77;45.66;100643.72;1826600;76;21653;-51
2021/05/10 06:34:13;;;;;;;2.30;0.50;;;;;;;13.82;45.25;100651.14;1826286;76;21079;-52
2021/05/10 06:36:41;;;;;;;1.32;1.10;;;;;;;13.89;44.73;100649.89;1825300;76;21201;-53
2021/05/10 06:39:09;;;;;;;0.93;0.47;;;;;;;13.95;44.03;100650.97;1825848;76;21151;-52
2021/05/10 06:41:38;;;;;;;1.57;0.50;;;;;;;13.97;43.96;100650.40;1827089;76;21189;-51
2021/05/10 06:44:06;;;;;;;0.65;0.47;;;;;;;14.01;43.31;100649.31;1806311;77;21154;-52
2021/05/10 06:46:33;;;;;;;1.35;0.50;;;;;;;14.02;43.59;100644.31;1807116;77;21497;-53
2021/05/10 06:49:02;;;;;;;0.60;0.40;;;;;;;14.08;43.40;100649.42;1781677;77;21585;-52
2021/05/10 06:51:29;;;;;;;1.22;0.40;;;;;;;14.15;42.90;100645.45;1766048;79;21155;-52
2021/05/10 06:53:56;;;;;;;0.57;0.30;;;;;;;14.22;43.09;100647.37;1735150;80;22644;-51
2021/05/10 06:56:24;;;;;;;4.22;0.40;;;;;;;14.30;42.96;100644.70;1741545;80;21170;-52
2021/05/10 06:58:51;;;;;;;0.80;0.40;;;;;;;14.40;43.55;100647.86;1750438;80;21814;-51
2021/05/10 07:01:19;;;;;;;0.45;0.30;;;;;;;14.49;42.60;100643.81;1744546;80;21205;-52
2021/05/10 07:03:46;;;;;;;2.15;1.57;;;;;;;14.58;42.55;100643.36;1743258;80;21190;-52
2021/05/10 07:06:14;;;;;;;1.40;0.53;;;;;;;14.68;42.10;100647.36;1742743;80;22218;-52
2021/05/10 07:08:41;;;;;;;0.42;0.25;;;;;;;14.78;40.93;100636.45;1745405;80;21503;-52
2021/05/10 07:11:09;;;;;;;0.40;0.30;;;;;;;14.90;40.14;100643.05;1743518;80;21227;-51
2021/05/10 07:13:38;;;;;;;0.53;0.30;;;;;;;14.98;39.12;100642.17;1742983;80;21150;-49
2021/05/10 07:16:07;;;;;;;1.32;0.28;;;;;;;15.05;39.27;100643.64;1744292;80;21230;-51
2021/05/10 07:18:35;;;;;;;0.95;0.20;;;;;;;15.11;39.00;100648.25;1743658;80;21414;-52
2021/05/10 07:21:02;;;;;;;0.85;0.20;;;;;;;15.14;37.33;100639.08;1748096;80;21150;-52
2021/05/10 07:23:30;;;;;;;0.20;0.20;;;;;;;15.13;37.35;100643.63;1744359;80;21194;-51
2021/05/10 07:25:57;;;;;;;0.20;0.20;;;;;;;15.13;37.12;100637.33;1739609;81;21186;-52
2021/05/10 07:28:25;;;;;;;0.30;0.20;;;;;;;15.14;37.09;100637.22;1743287;80;21175;-52
2021/05/10 07:30:52;;;;;;;1.12;0.13;;;;;;;15.15;37.10;100640.81;1742828;80;21756;-52
2021/05/10 07:33:20;;;;;;;0.55;0.30;;;;;;;15.17;37.28;100636.66;1746898;80;21134;-52
2021/05/10 07:35:48;;;;;;;0.40;0.20;;;;;;;15.16;37.88;100634.43;1742986;80;21493;-52
2021/05/10 07:38:15;;;;;;;0.57;0.30;;;;;;;15.17;37.61;100637.55;1739500;80;21732;-51
2021/05/10 07:40:43;;;;;;;0.40;0.30;;;;;;;15.23;37.41;100633.62;1743246;80;21210;-52
2021/05/10 07:43:10;;;;;;;4.25;0.40;;;;;;;15.30;36.77;100627.81;1743494;80;22420;-51
2021/05/10 07:45:38;;;;;;;1.70;0.30;;;;;;;15.37;36.05;100626.99;1743488;80;21699;-52
2021/05/10 07:48:05;;;;;;;0.35;0.30;;;;;;;15.43;35.97;100623.94;1744243;80;21198;-52
2021/05/10 07:50:33;;;;;;;0.20;0.20;;;;;;;15.49;36.28;100618.17;1743473;80;21486;-52
2021/05/10 07:53:01;;;;;;;1.40;0.30;;;;;;;15.56;35.89;100612.86;1738746;80;21199;-52
2021/05/10 07:55:28;;;;;;;0.45;0.30;;;;;;;15.65;36.56;100609.61;1742536;80;22131;-52
2021/05/10 07:57:56;;;;;;;0.50;0.30;;;;;;;15.76;36.92;100606.30;1741933;80;21187;-52
2021/05/10 08:03:12;;;;;;;1.93;0.30;;;;;;;16.03;36.89;100607.47;1870719;75;22722;-50
2021/05/10 08:05:37;;;;;;;0.20;0.20;;;;;;;16.09;36.67;100607.11;1846378;76;20960;-52
2021/05/10 08:08:05;;;;;;;2.17;0.20;;;;;;;16.18;35.01;100610.65;1844421;76;21371;-52
2021/05/10 08:10:32;;;;;;;0.17;0.10;;;;;;;16.22;34.06;100604.09;1846145;76;20956;-51
2021/05/10 08:12:59;;;;;;;0.45;0.30;;;;;;;16.23;33.71;100603.61;1842310;76;20961;-51
2021/05/10 08:15:26;;;;;;;1.05;0.20;;;;;;;16.20;34.36;100605.13;1807169;77;20989;-51
2021/05/10 08:17:53;;;;;;;0.50;0.30;;;;;;;16.17;33.45;100610.25;1806759;78;21693;-52
2021/05/10 08:20:22;;;;;;;0.30;0.20;;;;;;;16.13;33.42;100605.98;1798622;78;22668;-52
2021/05/10 08:22:51;;;;;;;0.75;0.30;;;;;;;16.13;34.08;100604.62;1803880;78;20988;-51
2021/05/10 08:25:19;;;;;;;0.35;0.25;;;;;;;16.11;33.16;100601.11;1773520;79;20977;-52
2021/05/10 08:27:47;;;;;;;1.75;0.30;;;;;;;16.08;34.04;100599.92;1779433;78;21150;-52
2021/05/10 08:30:15;;;;;;;0.40;0.20;;;;;;;16.09;33.34;100595.36;1785181;78;20988;-52
2021/05/10 08:32:42;;;;;;;1.95;0.25;;;;;;;16.08;33.03;100592.25;1776321;78;22134;-53
2021/05/10 08:35:10;;;;;;;0.40;0.20;;;;;;;16.03;32.63;100584.86;1806517;78;21107;-53
2021/05/10 08:37:38;;;;;;;0.35;0.20;;;;;;;15.97;32.67;100585.22;1807642;78;21122;-51
2021/05/10 08:40:06;;;;;;;0.40;0.28;;;;;;;15.93;33.44;100575.01;1805361;78;21264;-51
2021/05/10 08:42:33;;;;;;;0.10;0.10;;;;;;;15.99;33.45;100587.38;1762465;78;21194;-52
2021/05/10 08:45:03;;;;;;;0.40;0.20;;;;;;;16.08;33.08;100582.74;1749323;81;21401;-53
2021/05/10 08:47:32;;;;;;;0.50;0.30;;;;;;;16.13;33.18;100582.89;1781280;79;21669;-52
2021/05/10 08:50:02;;;;;;;0.30;0.20;;;;;;;16.19;33.38;100573.50;1776545;79;21135;-51
2021/05/10 08:52:30;;;;;;;0.30;0.30;;;;;;;16.27;33.43;100543.56;1748834;80;21100;-52
2021/05/10 08:54:58;;;;;;;0.30;0.25;;;;;;;16.37;33.63;100559.32;1775875;79;21190;-52
2021/05/10 08:57:26;;;;;;;0.47;0.20;;;;;;;16.53;32.84;100554.23;1748444;80;21580;-52
2021/05/10 08:59:53;;;;;;;0.40;0.30;;;;;;;16.53;32.84;100554.23;1740177;80;21310;-52
2021/05/10 09:02:34;;;;;;;0.35;0.20;;;;;;;16.58;33.76;100537.19;1749008;80;21238;-53
2021/05/10 09:07:24;;;;;;;2.53;0.30;;;;;;;16.80;33.67;100530.45;1791336;78;23457;-54
2021/05/10 09:10:03;;;;;;;1.15;0.30;;;;;;;16.77;32.80;100538.79;1738220;81;21167;-52
2021/05/10 09:12:50;;;;;;;1.22;0.35;;;;;;;16.71;32.61;100537.81;1706384;82;21507;-53
2021/05/10 09:15:28;;;;;;;;;;;;;;;16.63;32.94;100532.85;1731097;81;22284;-53
2021/05/10 09:18:05;;;;;;;0.40;0.23;;;;;;;16.62;32.65;100536.05;1703427;82;20246;-53
2021/05/10 09:20:40;;;;;;;0.40;0.40;;;;;;;16.64;33.36;100532.77;1714647;82;21031;-53
2021/05/10 09:23:13;;;;;;;1.15;0.30;;;;;;;16.67;32.48;100537.63;1717722;82;20997;-53
2021/05/10 09:25:42;;;;;;;2.60;0.50;;;;;;;16.66;33.51;100534.52;1718240;82;21484;-52
2021/05/10 09:28:19;;;;;;;0.60;0.30;;;;;;;16.70;33.06;100537.42;1715071;82;21241;-53
2021/05/10 09:30:51;;;;;;;0.57;0.30;;;;;;;16.74;33.05;100537.64;1715666;82;21221;-51
2021/05/10 09:33:26;;;;;;;0.43;0.40;;;;;;;16.76;32.11;100533.84;1717312;82;21618;-53
2021/05/10 09:36:07;;;;;;;1.70;0.40;;;;;;;16.75;32.48;100529.40;1715933;82;21219;-53
2021/05/10 09:38:37;;;;;;;1.67;0.40;;;;;;;16.72;32.97;100532.78;1714867;82;21228;-53
2021/05/10 09:41:08;;;;;;;0.30;0.30;;;;;;;16.72;32.97;100532.78;1714523;82;21197;-53
2021/05/10 09:43:38;;;;;;;0.70;0.40;;;;;;;16.79;32.66;100525.50;1715007;81;21716;-53
2021/05/10 09:46:12;;;;;;;0.80;0.33;;;;;;;16.82;32.55;100522.61;1745214;80;21133;-53
2021/05/10 09:48:45;;;;;;;0.30;0.30;;;;;;;16.83;32.21;100514.84;1700194;82;21197;-52
2021/05/10 09:51:17;;;;;;;1.62;0.30;;;;;;;16.87;32.51;100515.51;1709733;82;21144;-53
2021/05/10 09:53:54;;;;;;;0.50;0.37;;;;;;;16.91;32.38;100507.56;1714795;82;21175;-53
2021/05/10 09:56:28;;;;;;;1.87;0.30;;;;;;;16.94;32.20;100503.27;1718938;81;21597;-52
2021/05/10 09:58:59;;;;;;;0.88;0.37;;;;;;;16.97;32.27;100503.09;1743868;80;21183;-52
2021/05/10 10:01:43;;;;;;;0.53;0.40;;;;;;;17.00;32.37;100497.48;1709415;82;21226;-52
2021/05/10 10:04:12;;;;;;;0.53;0.40;;;;;;;17.05;32.05;100495.33;1713754;82;22173;-53
2021/05/10 10:06:41;;;;;;;0.30;0.30;;;;;;;17.15;33.06;100495.14;1694004;82;21816;-53
2021/05/10 10:09:08;;;;;;;0.72;0.40;;;;;;;17.23;32.31;100489.20;1673026;84;21233;-53
2021/05/10 10:11:35;;;;;;;0.40;0.30;;;;;;;17.26;30.92;100487.66;1676050;84;21182;-53
2021/05/10 10:14:04;;;;;;;1.05;0.20;;;;;;;17.23;30.66;100485.13;1669782;84;21593;-53
2021/05/10 10:16:33;;;;;;;0.40;0.30;;;;;;;17.19;30.99;100490.36;1679913;83;21510;-52
2021/05/10 10:19:04;;;;;;;0.45;0.30;;;;;;;17.21;31.62;100478.41;1736617;81;21206;-53
2021/05/10 10:21:37;;;;;;;0.47;0.25;;;;;;;17.28;31.22;100482.48;1738742;81;21713;-51
2021/05/10 10:24:06;;;;;;;0.30;0.30;;;;;;;17.34;31.12;100477.16;1737211;80;21626;-52
2021/05/10 10:26:37;;;;;;;0.60;0.30;;;;;;;17.36;31.41;100473.34;1733845;81;21184;-52
2021/05/10 10:29:08;;;;;;;2.50;0.40;;;;;;;17.38;31.00;100470.03;1741246;81;22028;-52
2021/05/10 10:31:38;;;;;;;0.47;0.33;;;;;;;17.38;31.46;100471.40;1735868;81;21957;-52
2021/05/10 10:34:14;;;;;;;0.50;0.35;;;;;;;17.43;30.61;100468.39;1738826;81;21176;-52
2021/05/10 10:36:49;;;;;;;;;;;;;;;17.47;31.24;100458.16;1740721;81;21132;-53
2021/05/10 10:39:23;;;;;;;1.67;0.30;;;;;;;17.54;31.75;100458.14;1737759;81;20270;-52
2021/05/10 10:42:11;;;;;;;0.30;0.20;;;;;;;17.62;30.60;100455.34;1739043;81;22175;-53
2021/05/10 10:44:47;;;;;;;0.68;0.40;;;;;;;17.60;30.30;100447.75;1741717;80;21127;-52
2021/05/10 10:47:18;;;;;;;2.58;0.80;;;;;;;17.54;30.48;100441.81;1733914;81;21176;-52
2021/05/10 10:49:46;;;;;;;0.60;0.40;;;;;;;17.56;30.60;100444.83;1730602;81;21230;-52
2021/05/10 10:52:24;;;;;;;0.50;0.40;;;;;;;17.61;30.41;100430.89;1741767;81;21128;-53
2021/05/10 10:55:17;;;;;;;1.22;0.40;;;;;;;17.56;29.38;100433.94;1736910;80;21222;-55
2021/05/10 10:57:44;;;;;;;0.70;0.40;;;;;;;17.48;30.32;100438.14;1739604;81;21440;-52
2021/05/10 11:00:14;;;;;;;0.50;0.30;;;;;;;17.42;30.47;100442.64;1741631;81;21423;-52
2021/05/10 11:02:50;;;;;;;1.30;0.53;;;;;;;17.44;30.93;100441.54;1740269;80;21071;-53
2021/05/10 11:05:22;;;;;;;0.40;0.30;;;;;;;17.48;30.68;100439.02;1735624;81;21148;-52
2021/05/10 11:10:58;;;;;;;1.50;0.30;;;;;;;17.57;30.03;100426.65;1868168;75;24782;-52
2021/05/10 11:13:33;;;;;;;4.50;0.30;;;;;;;17.54;31.28;100416.83;1840338;76;21182;-53
2021/05/10 11:16:04;;;;;;;0.93;0.30;;;;;;;17.57;30.82;100421.20;1842143;75;21393;-53
2021/05/10 11:18:49;;;;;;;0.40;0.30;;;;;;;17.59;29.73;100417.91;1846905;76;21210;-54
2021/05/10 11:21:31;;;;;;;0.35;0.30;;;;;;;17.55;30.16;100413.14;1843119;76;20981;-52
2021/05/10 11:24:00;;;;;;;0.80;0.35;;;;;;;17.56;29.86;100406.72;1839219;76;20985;-53
2021/05/10 11:26:47;;;;;;;0.42;0.30;;;;;;;17.59;30.01;100398.36;1814846;76;21219;-52
2021/05/10 11:29:34;;;;;;;0.57;0.30;;;;;;;17.62;30.38;100392.72;1844942;76;22014;-51
2021/05/10 11:32:13;;;;;;;3.33;0.30;;;;;;;17.70;30.63;100394.92;1843005;76;21493;-52
2021/05/10 11:34:41;;;;;;;0.60;0.37;;;;;;;17.77;30.36;100392.20;1836694;76;20960;-51
2021/05/10 11:37:09;;;;;;;0.68;0.30;;;;;;;17.80;30.16;100381.08;1840699;76;21653;-52
2021/05/10 11:39:39;;;;;;;0.70;0.40;;;;;;;17.85;30.25;100380.78;1842900;76;21103;-51
2021/05/10 11:42:11;;;;;;;2.92;0.40;;;;;;;17.91;30.53;100380.36;1818529;77;21187;-49
2021/05/10 11:44:41;;;;;;;0.72;0.37;;;;;;;17.96;30.17;100380.41;1798548;77;21432;-50
2021/05/10 11:47:12;;;;;;;0.95;0.37;;;;;;;18.02;29.98;100373.20;1796403;77;21530;-54
2021/05/10 11:49:49;;;;;;;0.53;0.40;;;;;;;18.07;30.66;100368.78;1797613;77;21470;-53
2021/05/10 11:52:24;;;;;;;0.65;0.40;;;;;;;18.08;29.80;100372.77;1799046;77;20964;-53
2021/05/10 11:54:55;;;;;;;1.57;0.30;;;;;;;18.09;29.52;100363.63;1795667;77;22354;-51
2021/05/10 11:57:27;;;;;;;1.55;0.30;;;;;;;18.10;29.66;100361.77;1799927;77;21139;-52